sensor_id;sensor_type;location;lat;lon;timestamp;P1;durP1;ratioP1;P2;durP2;ratioP2
8500;SDS011;4288;48.484;10.024;2023-05-13T00:02:21;4.07;;;2.90;;
8500;SDS011;4288;48.484;10.024;2023-05-13T00:04:49;2.37;;;2.17;;
8500;SDS011;4288;48.484;10.024;2023-05-13T00:07:16;2.47;;;2.27;;
8500;SDS011;4288;48.484;10.024;2023-05-13T00:09:44;3.50;;;2.60;;
8500;SDS011;4288;48.484;10.024;2023-05-13T00:12:12;1.77;;;1.63;;
8500;SDS011;4288;48.484;10.024;2023-05-13T00:14:40;7.90;;;2.17;;
8500;SDS011;4288;48.484;10.024;2023-05-13T00:17:07;1.63;;;1.53;;
8500;SDS011;4288;48.484;10.024;2023-05-13T00:19:34;2.27;;;1.80;;
8500;SDS011;4288;48.484;10.024;2023-05-13T00:22:02;1.83;;;1.73;;
8500;SDS011;4288;48.484;10.024;2023-05-13T00:24:29;1.77;;;1.67;;
8500;SDS011;4288;48.484;10.024;2023-05-13T00:26:57;3.50;;;1.87;;
8500;SDS011;4288;48.484;10.024;2023-05-13T00:29:26;2.70;;;1.80;;
8500;SDS011;4288;48.484;10.024;2023-05-13T00:31:53;1.87;;;1.60;;
8500;SDS011;4288;48.484;10.024;2023-05-13T00:34:20;1.50;;;1.40;;
8500;SDS011;4288;48.484;10.024;2023-05-13T00:36:48;1.50;;;1.40;;
8500;SDS011;4288;48.484;10.024;2023-05-13T00:39:15;1.70;;;1.60;;
8500;SDS011;4288;48.484;10.024;2023-05-13T00:41:43;2.43;;;2.23;;
8500;SDS011;4288;48.484;10.024;2023-05-13T00:44:10;2.80;;;2.47;;
8500;SDS011;4288;48.484;10.024;2023-05-13T00:46:39;2.33;;;2.13;;
8500;SDS011;4288;48.484;10.024;2023-05-13T00:49:07;2.67;;;2.40;;
8500;SDS011;4288;48.484;10.024;2023-05-13T00:51:35;2.77;;;2.50;;
8500;SDS011;4288;48.484;10.024;2023-05-13T00:54:02;3.73;;;2.70;;
8500;SDS011;4288;48.484;10.024;2023-05-13T00:56:30;2.50;;;2.30;;
8500;SDS011;4288;48.484;10.024;2023-05-13T00:58:58;3.70;;;2.90;;
8500;SDS011;4288;48.484;10.024;2023-05-13T01:01:28;3.57;;;1.93;;
8500;SDS011;4288;48.484;10.024;2023-05-13T01:04:18;3.60;;;2.70;;
8500;SDS011;4288;48.484;10.024;2023-05-13T01:06:55;2.27;;;2.10;;
8500;SDS011;4288;48.484;10.024;2023-05-13T01:09:32;2.93;;;2.50;;
8500;SDS011;4288;48.484;10.024;2023-05-13T01:12:06;3.00;;;2.57;;
8500;SDS011;4288;48.484;10.024;2023-05-13T01:14:37;1.80;;;1.70;;
8500;SDS011;4288;48.484;10.024;2023-05-13T01:17:12;2.60;;;2.40;;
8500;SDS011;4288;48.484;10.024;2023-05-13T01:19:45;2.83;;;2.60;;
8500;SDS011;4288;48.484;10.024;2023-05-13T01:22:16;4.50;;;2.03;;
8500;SDS011;4288;48.484;10.024;2023-05-13T01:24:43;2.40;;;2.00;;
8500;SDS011;4288;48.484;10.024;2023-05-13T01:27:10;3.17;;;2.47;;
8500;SDS011;4288;48.484;10.024;2023-05-13T01:29:38;3.33;;;3.03;;
8500;SDS011;4288;48.484;10.024;2023-05-13T01:32:06;2.70;;;2.47;;
8500;SDS011;4288;48.484;10.024;2023-05-13T01:34:35;2.37;;;2.17;;
8500;SDS011;4288;48.484;10.024;2023-05-13T01:37:03;2.27;;;2.07;;
8500;SDS011;4288;48.484;10.024;2023-05-13T01:39:32;3.30;;;2.57;;
8500;SDS011;4288;48.484;10.024;2023-05-13T01:42:03;2.07;;;1.93;;
8500;SDS011;4288;48.484;10.024;2023-05-13T01:44:31;2.90;;;2.63;;
8500;SDS011;4288;48.484;10.024;2023-05-13T01:46:58;10.60;;;2.47;;
8500;SDS011;4288;48.484;10.024;2023-05-13T01:49:25;4.20;;;2.60;;
8500;SDS011;4288;48.484;10.024;2023-05-13T01:51:53;2.40;;;2.20;;
8500;SDS011;4288;48.484;10.024;2023-05-13T01:54:20;2.27;;;1.77;;
8500;SDS011;4288;48.484;10.024;2023-05-13T01:56:49;2.40;;;1.90;;
8500;SDS011;4288;48.484;10.024;2023-05-13T01:59:16;2.23;;;2.03;;
8500;SDS011;4288;48.484;10.024;2023-05-13T02:01:44;3.00;;;2.10;;
8500;SDS011;4288;48.484;10.024;2023-05-13T02:04:11;4.57;;;2.53;;
8500;SDS011;4288;48.484;10.024;2023-05-13T02:06:38;4.20;;;2.40;;
8500;SDS011;4288;48.484;10.024;2023-05-13T02:09:06;2.83;;;2.63;;
8500;SDS011;4288;48.484;10.024;2023-05-13T02:11:33;3.37;;;2.13;;
8500;SDS011;4288;48.484;10.024;2023-05-13T02:14:02;2.13;;;1.93;;
8500;SDS011;4288;48.484;10.024;2023-05-13T02:16:30;3.03;;;1.83;;
8500;SDS011;4288;48.484;10.024;2023-05-13T02:18:57;2.73;;;2.30;;
8500;SDS011;4288;48.484;10.024;2023-05-13T02:21:25;3.40;;;3.00;;
8500;SDS011;4288;48.484;10.024;2023-05-13T02:23:52;2.10;;;1.90;;
8500;SDS011;4288;48.484;10.024;2023-05-13T02:26:19;6.43;;;4.63;;
8500;SDS011;4288;48.484;10.024;2023-05-13T02:28:47;2.53;;;2.33;;
8500;SDS011;4288;48.484;10.024;2023-05-13T02:31:16;4.40;;;2.60;;
8500;SDS011;4288;48.484;10.024;2023-05-13T02:33:43;1.80;;;1.70;;
8500;SDS011;4288;48.484;10.024;2023-05-13T02:36:10;4.20;;;2.30;;
8500;SDS011;4288;48.484;10.024;2023-05-13T02:38:38;2.70;;;2.27;;
8500;SDS011;4288;48.484;10.024;2023-05-13T02:41:05;2.03;;;1.93;;
8500;SDS011;4288;48.484;10.024;2023-05-13T02:43:32;2.57;;;2.37;;
8500;SDS011;4288;48.484;10.024;2023-05-13T02:46:00;2.13;;;2.03;;
8500;SDS011;4288;48.484;10.024;2023-05-13T02:48:30;3.83;;;2.27;;
8500;SDS011;4288;48.484;10.024;2023-05-13T02:50:57;1.70;;;1.60;;
8500;SDS011;4288;48.484;10.024;2023-05-13T02:53:24;1.73;;;1.63;;
8500;SDS011;4288;48.484;10.024;2023-05-13T02:55:52;2.30;;;2.10;;
8500;SDS011;4288;48.484;10.024;2023-05-13T02:58:19;2.27;;;2.00;;
8500;SDS011;4288;48.484;10.024;2023-05-13T03:00:46;2.23;;;2.10;;
8500;SDS011;4288;48.484;10.024;2023-05-13T03:03:14;2.10;;;2.00;;
8500;SDS011;4288;48.484;10.024;2023-05-13T03:05:42;3.03;;;2.30;;
8500;SDS011;4288;48.484;10.024;2023-05-13T03:08:10;2.53;;;2.33;;
8500;SDS011;4288;48.484;10.024;2023-05-13T03:10:37;2.33;;;2.13;;
8500;SDS011;4288;48.484;10.024;2023-05-13T03:13:05;2.23;;;2.03;;
8500;SDS011;4288;48.484;10.024;2023-05-13T03:15:32;2.60;;;2.40;;
8500;SDS011;4288;48.484;10.024;2023-05-13T03:17:59;2.77;;;2.23;;
8500;SDS011;4288;48.484;10.024;2023-05-13T03:20:27;2.20;;;2.00;;
8500;SDS011;4288;48.484;10.024;2023-05-13T03:22:55;2.73;;;2.30;;
8500;SDS011;4288;48.484;10.024;2023-05-13T03:25:23;1.57;;;1.47;;
8500;SDS011;4288;48.484;10.024;2023-05-13T03:27:50;2.37;;;2.17;;
8500;SDS011;4288;48.484;10.024;2023-05-13T03:30:17;1.80;;;1.70;;
8500;SDS011;4288;48.484;10.024;2023-05-13T03:32:45;1.97;;;1.83;;
8500;SDS011;4288;48.484;10.024;2023-05-13T03:35:13;2.13;;;1.80;;
8500;SDS011;4288;48.484;10.024;2023-05-13T03:37:40;2.17;;;1.97;;
8500;SDS011;4288;48.484;10.024;2023-05-13T03:40:09;2.03;;;1.43;;
8500;SDS011;4288;48.484;10.024;2023-05-13T03:42:37;2.03;;;1.90;;
8500;SDS011;4288;48.484;10.024;2023-05-13T03:45:05;6.60;;;1.60;;
8500;SDS011;4288;48.484;10.024;2023-05-13T03:47:33;2.60;;;1.53;;
8500;SDS011;4288;48.484;10.024;2023-05-13T03:50:03;2.43;;;2.23;;
8500;SDS011;4288;48.484;10.024;2023-05-13T03:52:31;2.73;;;2.17;;
8500;SDS011;4288;48.484;10.024;2023-05-13T03:54:58;2.20;;;2.00;;
8500;SDS011;4288;48.484;10.024;2023-05-13T03:57:27;2.30;;;1.67;;
8500;SDS011;4288;48.484;10.024;2023-05-13T03:59:54;4.73;;;2.23;;
8500;SDS011;4288;48.484;10.024;2023-05-13T04:02:21;2.80;;;2.60;;
8500;SDS011;4288;48.484;10.024;2023-05-13T04:04:49;2.13;;;1.93;;
8500;SDS011;4288;48.484;10.024;2023-05-13T04:07:16;3.17;;;2.27;;
8500;SDS011;4288;48.484;10.024;2023-05-13T04:09:43;2.93;;;2.60;;
8500;SDS011;4288;48.484;10.024;2023-05-13T04:12:11;2.10;;;1.90;;
8500;SDS011;4288;48.484;10.024;2023-05-13T04:14:39;2.70;;;2.50;;
8500;SDS011;4288;48.484;10.024;2023-05-13T04:17:07;1.97;;;1.83;;
8500;SDS011;4288;48.484;10.024;2023-05-13T04:19:34;5.13;;;2.30;;
8500;SDS011;4288;48.484;10.024;2023-05-13T04:22:01;4.23;;;2.53;;
8500;SDS011;4288;48.484;10.024;2023-05-13T04:24:29;3.17;;;2.50;;
8500;SDS011;4288;48.484;10.024;2023-05-13T04:26:56;2.80;;;2.60;;
8500;SDS011;4288;48.484;10.024;2023-05-13T04:29:24;3.53;;;2.50;;
8500;SDS011;4288;48.484;10.024;2023-05-13T04:31:52;3.27;;;2.40;;
8500;SDS011;4288;48.484;10.024;2023-05-13T04:34:20;5.60;;;2.70;;
8500;SDS011;4288;48.484;10.024;2023-05-13T04:36:47;8.10;;;2.70;;
8500;SDS011;4288;48.484;10.024;2023-05-13T04:39:14;4.27;;;3.00;;
8500;SDS011;4288;48.484;10.024;2023-05-13T04:41:42;3.90;;;3.00;;
8500;SDS011;4288;48.484;10.024;2023-05-13T04:44:09;3.67;;;2.40;;
8500;SDS011;4288;48.484;10.024;2023-05-13T04:46:36;3.10;;;2.57;;
8500;SDS011;4288;48.484;10.024;2023-05-13T04:49:05;3.00;;;2.77;;
8500;SDS011;4288;48.484;10.024;2023-05-13T04:51:33;5.23;;;3.00;;
8500;SDS011;4288;48.484;10.024;2023-05-13T04:54:00;18.10;;;4.77;;
8500;SDS011;4288;48.484;10.024;2023-05-13T04:56:28;5.00;;;2.80;;
8500;SDS011;4288;48.484;10.024;2023-05-13T04:58:55;6.90;;;2.83;;
8500;SDS011;4288;48.484;10.024;2023-05-13T05:01:22;4.73;;;3.53;;
8500;SDS011;4288;48.484;10.024;2023-05-13T05:03:50;4.90;;;3.67;;
8500;SDS011;4288;48.484;10.024;2023-05-13T05:06:18;5.43;;;3.00;;
8500;SDS011;4288;48.484;10.024;2023-05-13T05:08:46;3.77;;;2.50;;
8500;SDS011;4288;48.484;10.024;2023-05-13T05:11:13;7.93;;;3.13;;
8500;SDS011;4288;48.484;10.024;2023-05-13T05:13:41;4.07;;;3.17;;
8500;SDS011;4288;48.484;10.024;2023-05-13T05:16:08;4.23;;;3.13;;
8500;SDS011;4288;48.484;10.024;2023-05-13T05:18:35;6.40;;;3.73;;
8500;SDS011;4288;48.484;10.024;2023-05-13T05:21:05;3.67;;;2.63;;
8500;SDS011;4288;48.484;10.024;2023-05-13T05:23:34;5.13;;;4.13;;
8500;SDS011;4288;48.484;10.024;2023-05-13T05:26:01;7.50;;;4.17;;
8500;SDS011;4288;48.484;10.024;2023-05-13T05:28:29;19.63;;;3.93;;
8500;SDS011;4288;48.484;10.024;2023-05-13T05:30:56;6.03;;;3.90;;
8500;SDS011;4288;48.484;10.024;2023-05-13T05:33:25;6.13;;;4.20;;
8500;SDS011;4288;48.484;10.024;2023-05-13T05:35:53;7.73;;;4.70;;
8500;SDS011;4288;48.484;10.024;2023-05-13T05:38:20;3.80;;;3.43;;
8500;SDS011;4288;48.484;10.024;2023-05-13T05:40:50;6.60;;;3.47;;
8500;SDS011;4288;48.484;10.024;2023-05-13T05:43:18;6.40;;;2.70;;
8500;SDS011;4288;48.484;10.024;2023-05-13T05:45:45;4.63;;;3.20;;
8500;SDS011;4288;48.484;10.024;2023-05-13T05:48:12;4.63;;;4.00;;
8500;SDS011;4288;48.484;10.024;2023-05-13T05:50:40;6.70;;;3.80;;
8500;SDS011;4288;48.484;10.024;2023-05-13T05:53:08;6.73;;;3.40;;
8500;SDS011;4288;48.484;10.024;2023-05-13T05:55:35;3.30;;;2.73;;
8500;SDS011;4288;48.484;10.024;2023-05-13T05:58:04;4.80;;;2.97;;
8500;SDS011;4288;48.484;10.024;2023-05-13T06:00:31;6.30;;;3.37;;
8500;SDS011;4288;48.484;10.024;2023-05-13T06:02:58;4.67;;;3.30;;
8500;SDS011;4288;48.484;10.024;2023-05-13T06:05:26;3.30;;;2.97;;
8500;SDS011;4288;48.484;10.024;2023-05-13T06:07:53;6.83;;;3.70;;
8500;SDS011;4288;48.484;10.024;2023-05-13T06:10:20;8.23;;;3.37;;
8500;SDS011;4288;48.484;10.024;2023-05-13T06:12:48;4.93;;;3.33;;
8500;SDS011;4288;48.484;10.024;2023-05-13T06:15:17;4.70;;;3.60;;
8500;SDS011;4288;48.484;10.024;2023-05-13T06:17:44;4.07;;;3.50;;
8500;SDS011;4288;48.484;10.024;2023-05-13T06:20:12;4.07;;;3.40;;
8500;SDS011;4288;48.484;10.024;2023-05-13T06:22:39;6.30;;;3.27;;
8500;SDS011;4288;48.484;10.024;2023-05-13T06:25:07;4.27;;;3.40;;
8500;SDS011;4288;48.484;10.024;2023-05-13T06:27:35;5.37;;;3.67;;
8500;SDS011;4288;48.484;10.024;2023-05-13T06:30:02;7.80;;;4.23;;
8500;SDS011;4288;48.484;10.024;2023-05-13T06:32:32;9.43;;;3.57;;
8500;SDS011;4288;48.484;10.024;2023-05-13T06:34:59;6.30;;;4.23;;
8500;SDS011;4288;48.484;10.024;2023-05-13T06:37:27;4.73;;;3.70;;
8500;SDS011;4288;48.484;10.024;2023-05-13T06:39:54;7.37;;;4.60;;
8500;SDS011;4288;48.484;10.024;2023-05-13T06:42:22;7.13;;;4.93;;
8500;SDS011;4288;48.484;10.024;2023-05-13T06:44:49;6.20;;;4.00;;
8500;SDS011;4288;48.484;10.024;2023-05-13T06:47:17;6.67;;;4.97;;
8500;SDS011;4288;48.484;10.024;2023-05-13T06:49:46;7.40;;;5.50;;
8500;SDS011;4288;48.484;10.024;2023-05-13T06:52:13;5.20;;;4.03;;
8500;SDS011;4288;48.484;10.024;2023-05-13T06:54:40;8.40;;;5.27;;
8500;SDS011;4288;48.484;10.024;2023-05-13T06:57:08;6.90;;;4.03;;
8500;SDS011;4288;48.484;10.024;2023-05-13T06:59:36;4.37;;;3.47;;
8500;SDS011;4288;48.484;10.024;2023-05-13T07:02:03;5.30;;;3.80;;
8500;SDS011;4288;48.484;10.024;2023-05-13T07:04:33;6.30;;;3.67;;
8500;SDS011;4288;48.484;10.024;2023-05-13T07:07:02;3.33;;;2.90;;
8500;SDS011;4288;48.484;10.024;2023-05-13T07:09:30;3.20;;;2.90;;
8500;SDS011;4288;48.484;10.024;2023-05-13T07:11:58;10.67;;;4.53;;
8500;SDS011;4288;48.484;10.024;2023-05-13T07:14:26;7.13;;;4.30;;
8500;SDS011;4288;48.484;10.024;2023-05-13T07:16:53;10.10;;;4.50;;
8500;SDS011;4288;48.484;10.024;2023-05-13T07:19:22;4.00;;;3.60;;
8500;SDS011;4288;48.484;10.024;2023-05-13T07:21:50;5.73;;;2.90;;
8500;SDS011;4288;48.484;10.024;2023-05-13T07:24:18;4.17;;;3.57;;
8500;SDS011;4288;48.484;10.024;2023-05-13T07:26:46;4.10;;;3.70;;
8500;SDS011;4288;48.484;10.024;2023-05-13T07:29:13;13.73;;;4.03;;
8500;SDS011;4288;48.484;10.024;2023-05-13T07:31:40;4.20;;;3.80;;
8500;SDS011;4288;48.484;10.024;2023-05-13T07:34:08;8.27;;;5.43;;
8500;SDS011;4288;48.484;10.024;2023-05-13T07:36:35;8.83;;;5.10;;
8500;SDS011;4288;48.484;10.024;2023-05-13T07:39:02;8.33;;;5.63;;
8500;SDS011;4288;48.484;10.024;2023-05-13T07:41:34;8.87;;;4.53;;
8500;SDS011;4288;48.484;10.024;2023-05-13T07:44:01;7.53;;;4.93;;
8500;SDS011;4288;48.484;10.024;2023-05-13T07:46:29;6.47;;;3.97;;
8500;SDS011;4288;48.484;10.024;2023-05-13T07:48:57;6.07;;;4.90;;
8500;SDS011;4288;48.484;10.024;2023-05-13T07:51:24;7.63;;;3.97;;
8500;SDS011;4288;48.484;10.024;2023-05-13T07:53:52;7.50;;;4.70;;
8500;SDS011;4288;48.484;10.024;2023-05-13T07:56:19;4.67;;;4.27;;
8500;SDS011;4288;48.484;10.024;2023-05-13T07:58:48;7.00;;;5.33;;
8500;SDS011;4288;48.484;10.024;2023-05-13T08:01:15;11.83;;;5.90;;
8500;SDS011;4288;48.484;10.024;2023-05-13T08:03:43;9.47;;;5.87;;
8500;SDS011;4288;48.484;10.024;2023-05-13T08:06:10;10.73;;;6.63;;
8500;SDS011;4288;48.484;10.024;2023-05-13T08:08:37;6.63;;;4.63;;
8500;SDS011;4288;48.484;10.024;2023-05-13T08:11:04;4.27;;;3.87;;
8500;SDS011;4288;48.484;10.024;2023-05-13T08:13:32;6.53;;;4.03;;
8500;SDS011;4288;48.484;10.024;2023-05-13T08:16:01;9.30;;;4.83;;
8500;SDS011;4288;48.484;10.024;2023-05-13T08:18:28;7.10;;;5.30;;
8500;SDS011;4288;48.484;10.024;2023-05-13T08:20:56;7.80;;;5.43;;
8500;SDS011;4288;48.484;10.024;2023-05-13T08:23:23;7.30;;;5.07;;
8500;SDS011;4288;48.484;10.024;2023-05-13T08:25:50;4.20;;;3.80;;
8500;SDS011;4288;48.484;10.024;2023-05-13T08:28:18;6.40;;;4.70;;
8500;SDS011;4288;48.484;10.024;2023-05-13T08:30:45;6.40;;;4.27;;
8500;SDS011;4288;48.484;10.024;2023-05-13T08:33:14;6.50;;;4.50;;
8500;SDS011;4288;48.484;10.024;2023-05-13T08:35:41;6.53;;;4.37;;
8500;SDS011;4288;48.484;10.024;2023-05-13T08:38:09;6.07;;;4.57;;
8500;SDS011;4288;48.484;10.024;2023-05-13T08:40:36;5.40;;;4.37;;
8500;SDS011;4288;48.484;10.024;2023-05-13T08:43:03;5.57;;;4.20;;
8500;SDS011;4288;48.484;10.024;2023-05-13T08:45:32;8.60;;;5.77;;
8500;SDS011;4288;48.484;10.024;2023-05-13T08:48:01;5.33;;;4.80;;
8500;SDS011;4288;48.484;10.024;2023-05-13T08:50:31;9.63;;;4.30;;
8500;SDS011;4288;48.484;10.024;2023-05-13T08:52:59;5.87;;;4.47;;
8500;SDS011;4288;48.484;10.024;2023-05-13T08:55:27;5.03;;;4.40;;
8500;SDS011;4288;48.484;10.024;2023-05-13T08:57:54;4.60;;;4.20;;
8500;SDS011;4288;48.484;10.024;2023-05-13T09:00:22;6.33;;;5.30;;
8500;SDS011;4288;48.484;10.024;2023-05-13T09:02:49;3.90;;;3.60;;
8500;SDS011;4288;48.484;10.024;2023-05-13T09:05:17;4.60;;;4.10;;
8500;SDS011;4288;48.484;10.024;2023-05-13T09:07:47;11.67;;;4.87;;
8500;SDS011;4288;48.484;10.024;2023-05-13T09:10:14;7.03;;;4.67;;
8500;SDS011;4288;48.484;10.024;2023-05-13T09:12:45;5.77;;;4.90;;
8500;SDS011;4288;48.484;10.024;2023-05-13T09:15:15;5.77;;;5.10;;
8500;SDS011;4288;48.484;10.024;2023-05-13T09:17:43;10.00;;;5.17;;
8500;SDS011;4288;48.484;10.024;2023-05-13T09:20:14;5.23;;;4.73;;
8500;SDS011;4288;48.484;10.024;2023-05-13T09:22:44;4.43;;;4.03;;
8500;SDS011;4288;48.484;10.024;2023-05-13T09:25:14;4.97;;;4.00;;
8500;SDS011;4288;48.484;10.024;2023-05-13T09:27:44;8.23;;;4.70;;
8500;SDS011;4288;48.484;10.024;2023-05-13T09:30:13;4.60;;;4.20;;
8500;SDS011;4288;48.484;10.024;2023-05-13T09:32:40;5.20;;;4.70;;
8500;SDS011;4288;48.484;10.024;2023-05-13T09:35:11;5.03;;;4.43;;
8500;SDS011;4288;48.484;10.024;2023-05-13T09:37:42;5.57;;;5.07;;
8500;SDS011;4288;48.484;10.024;2023-05-13T09:40:12;6.33;;;5.63;;
8500;SDS011;4288;48.484;10.024;2023-05-13T09:42:41;10.80;;;5.50;;
8500;SDS011;4288;48.484;10.024;2023-05-13T09:45:09;5.80;;;5.20;;
8500;SDS011;4288;48.484;10.024;2023-05-13T09:47:38;7.50;;;6.03;;
8500;SDS011;4288;48.484;10.024;2023-05-13T09:50:06;5.70;;;4.50;;
8500;SDS011;4288;48.484;10.024;2023-05-13T09:52:37;5.33;;;4.83;;
8500;SDS011;4288;48.484;10.024;2023-05-13T09:55:07;6.60;;;4.77;;
8500;SDS011;4288;48.484;10.024;2023-05-13T09:57:36;8.50;;;5.07;;
8500;SDS011;4288;48.484;10.024;2023-05-13T10:00:05;6.90;;;6.20;;
8500;SDS011;4288;48.484;10.024;2023-05-13T10:02:33;6.13;;;4.90;;
8500;SDS011;4288;48.484;10.024;2023-05-13T10:05:00;5.40;;;4.93;;
8500;SDS011;4288;48.484;10.024;2023-05-13T10:07:28;6.03;;;5.43;;
8500;SDS011;4288;48.484;10.024;2023-05-13T10:09:59;6.23;;;5.63;;
8500;SDS011;4288;48.484;10.024;2023-05-13T10:12:29;6.83;;;6.13;;
8500;SDS011;4288;48.484;10.024;2023-05-13T10:15:00;7.20;;;6.50;;
8500;SDS011;4288;48.484;10.024;2023-05-13T10:17:28;6.73;;;5.90;;
8500;SDS011;4288;48.484;10.024;2023-05-13T10:19:57;9.00;;;6.30;;
8500;SDS011;4288;48.484;10.024;2023-05-13T10:22:26;6.03;;;5.43;;
8500;SDS011;4288;48.484;10.024;2023-05-13T10:24:55;7.03;;;4.47;;
8500;SDS011;4288;48.484;10.024;2023-05-13T10:27:25;5.90;;;5.17;;
8500;SDS011;4288;48.484;10.024;2023-05-13T10:29:54;11.63;;;5.60;;
8500;SDS011;4288;48.484;10.024;2023-05-13T10:32:24;6.13;;;5.53;;
8500;SDS011;4288;48.484;10.024;2023-05-13T10:34:54;6.53;;;5.10;;
8500;SDS011;4288;48.484;10.024;2023-05-13T10:37:32;5.40;;;4.90;;
8500;SDS011;4288;48.484;10.024;2023-05-13T10:40:28;5.73;;;5.03;;
8500;SDS011;4288;48.484;10.024;2023-05-13T10:43:08;5.73;;;5.07;;
8500;SDS011;4288;48.484;10.024;2023-05-13T10:45:42;8.00;;;5.80;;
8500;SDS011;4288;48.484;10.024;2023-05-13T10:48:12;7.73;;;5.67;;
8500;SDS011;4288;48.484;10.024;2023-05-13T10:50:49;5.03;;;4.37;;
8500;SDS011;4288;48.484;10.024;2023-05-13T10:53:22;6.20;;;5.43;;
8500;SDS011;4288;48.484;10.024;2023-05-13T10:55:54;4.23;;;3.83;;
8500;SDS011;4288;48.484;10.024;2023-05-13T10:58:33;8.03;;;5.47;;
8500;SDS011;4288;48.484;10.024;2023-05-13T11:01:12;6.67;;;5.57;;
8500;SDS011;4288;48.484;10.024;2023-05-13T11:03:44;6.10;;;4.73;;
8500;SDS011;4288;48.484;10.024;2023-05-13T11:06:18;4.90;;;4.23;;
8500;SDS011;4288;48.484;10.024;2023-05-13T11:08:47;6.60;;;6.00;;
8500;SDS011;4288;48.484;10.024;2023-05-13T11:11:16;7.77;;;6.37;;
8500;SDS011;4288;48.484;10.024;2023-05-13T11:14:01;7.10;;;4.73;;
8500;SDS011;4288;48.484;10.024;2023-05-13T11:16:34;6.80;;;6.10;;
8500;SDS011;4288;48.484;10.024;2023-05-13T11:19:05;6.00;;;5.40;;
8500;SDS011;4288;48.484;10.024;2023-05-13T11:21:45;4.47;;;4.07;;
8500;SDS011;4288;48.484;10.024;2023-05-13T11:24:17;4.73;;;4.33;;
8500;SDS011;4288;48.484;10.024;2023-05-13T11:26:46;4.93;;;4.47;;
8500;SDS011;4288;48.484;10.024;2023-05-13T11:29:13;8.03;;;4.17;;
8500;SDS011;4288;48.484;10.024;2023-05-13T11:31:51;3.73;;;3.40;;
8500;SDS011;4288;48.484;10.024;2023-05-13T11:34:22;5.50;;;5.00;;
8500;SDS011;4288;48.484;10.024;2023-05-13T11:36:52;4.40;;;3.87;;
8500;SDS011;4288;48.484;10.024;2023-05-13T11:39:20;4.70;;;4.20;;
8500;SDS011;4288;48.484;10.024;2023-05-13T11:41:48;4.47;;;4.07;;
8500;SDS011;4288;48.484;10.024;2023-05-13T11:44:15;3.77;;;3.37;;
8500;SDS011;4288;48.484;10.024;2023-05-13T11:46:53;5.70;;;4.30;;
8500;SDS011;4288;48.484;10.024;2023-05-13T11:49:38;3.30;;;3.00;;
8500;SDS011;4288;48.484;10.024;2023-05-13T11:52:06;3.80;;;3.50;;
8500;SDS011;4288;48.484;10.024;2023-05-13T11:54:40;4.10;;;3.40;;
8500;SDS011;4288;48.484;10.024;2023-05-13T11:57:16;4.53;;;4.13;;
8500;SDS011;4288;48.484;10.024;2023-05-13T11:59:48;4.63;;;4.23;;
8500;SDS011;4288;48.484;10.024;2023-05-13T12:02:15;5.43;;;4.50;;
8500;SDS011;4288;48.484;10.024;2023-05-13T12:04:47;9.00;;;4.97;;
8500;SDS011;4288;48.484;10.024;2023-05-13T12:07:17;5.73;;;5.13;;
8500;SDS011;4288;48.484;10.024;2023-05-13T12:09:45;5.00;;;4.40;;
8500;SDS011;4288;48.484;10.024;2023-05-13T12:12:12;7.93;;;5.30;;
8500;SDS011;4288;48.484;10.024;2023-05-13T12:14:40;5.23;;;4.20;;
8500;SDS011;4288;48.484;10.024;2023-05-13T12:17:08;5.47;;;4.97;;
8500;SDS011;4288;48.484;10.024;2023-05-13T12:19:35;5.60;;;4.97;;
8500;SDS011;4288;48.484;10.024;2023-05-13T12:22:04;6.33;;;5.73;;
8500;SDS011;4288;48.484;10.024;2023-05-13T12:24:31;6.67;;;5.97;;
8500;SDS011;4288;48.484;10.024;2023-05-13T12:27:03;7.80;;;7.00;;
8500;SDS011;4288;48.484;10.024;2023-05-13T12:29:38;6.03;;;5.23;;
8500;SDS011;4288;48.484;10.024;2023-05-13T12:32:05;5.23;;;4.73;;
8500;SDS011;4288;48.484;10.024;2023-05-13T12:34:32;6.90;;;6.20;;
8500;SDS011;4288;48.484;10.024;2023-05-13T12:37:09;5.70;;;5.10;;
8500;SDS011;4288;48.484;10.024;2023-05-13T12:39:37;7.47;;;6.20;;
8500;SDS011;4288;48.484;10.024;2023-05-13T12:42:04;6.90;;;6.03;;
8500;SDS011;4288;48.484;10.024;2023-05-13T12:44:31;9.67;;;5.80;;
8500;SDS011;4288;48.484;10.024;2023-05-13T12:46:59;5.20;;;4.70;;
8500;SDS011;4288;48.484;10.024;2023-05-13T12:49:26;7.10;;;5.40;;
8500;SDS011;4288;48.484;10.024;2023-05-13T12:51:53;5.87;;;4.90;;
8500;SDS011;4288;48.484;10.024;2023-05-13T12:54:22;10.00;;;6.60;;
8500;SDS011;4288;48.484;10.024;2023-05-13T12:56:49;7.43;;;6.63;;
8500;SDS011;4288;48.484;10.024;2023-05-13T12:59:16;7.10;;;6.40;;
8500;SDS011;4288;48.484;10.024;2023-05-13T13:01:44;8.10;;;6.90;;
8500;SDS011;4288;48.484;10.024;2023-05-13T13:04:13;5.77;;;5.27;;
8500;SDS011;4288;48.484;10.024;2023-05-13T13:06:42;5.67;;;5.17;;
8500;SDS011;4288;48.484;10.024;2023-05-13T13:09:10;7.80;;;6.70;;
8500;SDS011;4288;48.484;10.024;2023-05-13T13:11:38;9.03;;;6.93;;
8500;SDS011;4288;48.484;10.024;2023-05-13T13:14:06;6.83;;;5.93;;
8500;SDS011;4288;48.484;10.024;2023-05-13T13:16:33;6.93;;;6.27;;
8500;SDS011;4288;48.484;10.024;2023-05-13T13:19:00;7.97;;;7.17;;
8500;SDS011;4288;48.484;10.024;2023-05-13T13:21:27;7.50;;;6.13;;
8500;SDS011;4288;48.484;10.024;2023-05-13T13:23:55;10.63;;;6.80;;
8500;SDS011;4288;48.484;10.024;2023-05-13T13:26:22;7.13;;;5.90;;
8500;SDS011;4288;48.484;10.024;2023-05-13T13:28:50;9.63;;;6.50;;
8500;SDS011;4288;48.484;10.024;2023-05-13T13:31:17;6.50;;;5.33;;
8500;SDS011;4288;48.484;10.024;2023-05-13T13:33:44;6.80;;;6.10;;
8500;SDS011;4288;48.484;10.024;2023-05-13T13:36:12;13.13;;;7.77;;
8500;SDS011;4288;48.484;10.024;2023-05-13T13:38:39;9.63;;;7.60;;
8500;SDS011;4288;48.484;10.024;2023-05-13T13:41:06;9.20;;;7.53;;
8500;SDS011;4288;48.484;10.024;2023-05-13T13:43:33;8.43;;;6.43;;
8500;SDS011;4288;48.484;10.024;2023-05-13T13:46:02;8.20;;;6.47;;
8500;SDS011;4288;48.484;10.024;2023-05-13T13:48:29;7.30;;;6.13;;
8500;SDS011;4288;48.484;10.024;2023-05-13T13:50:56;8.43;;;7.40;;
8500;SDS011;4288;48.484;10.024;2023-05-13T13:53:23;8.50;;;7.17;;
8500;SDS011;4288;48.484;10.024;2023-05-13T13:55:50;7.30;;;6.60;;
8500;SDS011;4288;48.484;10.024;2023-05-13T13:58:17;7.90;;;7.00;;
8500;SDS011;4288;48.484;10.024;2023-05-13T14:00:45;7.60;;;5.57;;
8500;SDS011;4288;48.484;10.024;2023-05-13T14:03:13;6.53;;;5.60;;
8500;SDS011;4288;48.484;10.024;2023-05-13T14:05:40;5.60;;;4.80;;
8500;SDS011;4288;48.484;10.024;2023-05-13T14:08:07;6.27;;;5.50;;
8500;SDS011;4288;48.484;10.024;2023-05-13T14:10:35;5.80;;;5.27;;
8500;SDS011;4288;48.484;10.024;2023-05-13T14:13:02;6.30;;;5.23;;
8500;SDS011;4288;48.484;10.024;2023-05-13T14:15:29;5.33;;;4.80;;
8500;SDS011;4288;48.484;10.024;2023-05-13T14:17:56;9.60;;;6.60;;
8500;SDS011;4288;48.484;10.024;2023-05-13T14:20:24;6.70;;;5.07;;
8500;SDS011;4288;48.484;10.024;2023-05-13T14:22:52;6.37;;;5.00;;
8500;SDS011;4288;48.484;10.024;2023-05-13T14:25:20;6.93;;;5.47;;
8500;SDS011;4288;48.484;10.024;2023-05-13T14:27:47;8.70;;;5.10;;
8500;SDS011;4288;48.484;10.024;2023-05-13T14:30:14;5.37;;;4.70;;
8500;SDS011;4288;48.484;10.024;2023-05-13T14:32:42;5.57;;;4.90;;
8500;SDS011;4288;48.484;10.024;2023-05-13T14:35:09;5.13;;;4.63;;
8500;SDS011;4288;48.484;10.024;2023-05-13T14:37:38;3.60;;;3.30;;
8500;SDS011;4288;48.484;10.024;2023-05-13T14:40:06;4.60;;;3.77;;
8500;SDS011;4288;48.484;10.024;2023-05-13T14:42:33;3.90;;;3.37;;
8500;SDS011;4288;48.484;10.024;2023-05-13T14:45:00;5.70;;;4.20;;
8500;SDS011;4288;48.484;10.024;2023-05-13T14:47:28;5.43;;;3.90;;
8500;SDS011;4288;48.484;10.024;2023-05-13T14:49:55;4.30;;;3.80;;
8500;SDS011;4288;48.484;10.024;2023-05-13T14:52:22;4.73;;;3.40;;
8500;SDS011;4288;48.484;10.024;2023-05-13T14:54:51;4.60;;;3.90;;
8500;SDS011;4288;48.484;10.024;2023-05-13T14:57:18;4.40;;;4.00;;
8500;SDS011;4288;48.484;10.024;2023-05-13T14:59:46;3.80;;;3.50;;
8500;SDS011;4288;48.484;10.024;2023-05-13T15:02:13;4.50;;;4.10;;
8500;SDS011;4288;48.484;10.024;2023-05-13T15:04:41;4.40;;;3.83;;
8500;SDS011;4288;48.484;10.024;2023-05-13T15:07:08;6.00;;;4.80;;
8500;SDS011;4288;48.484;10.024;2023-05-13T15:09:35;8.53;;;4.90;;